Time;durP1;ratioP1;P1;durP2;ratioP2;P2;SDS_P1;SDS_P2;PMS_P1;PMS_P2;Temp;Humidity;BMP_temperature;BMP_pressure;BME280_temperature;BME280_humidity;BME280_pressure;Samples;Min_cycle;Max_cycle;Signal;HPM_P1;HPM_P2
2022/04/02 00:01:39;;;;;;;25.05;3.28;;;;;;;18.55;60.61;98486.69;7310077;19;129030;-38
2022/04/02 00:04:05;;;;;;;21.85;2.63;;;;;;;18.44;60.40;98468.69;7310821;19;129004;-39
2022/04/02 00:06:31;;;;;;;31.87;4.33;;;;;;;18.52;60.50;98480.94;7309656;19;129113;-38
2022/04/02 00:08:56;;;;;;;18.07;2.17;;;;;;;18.42;60.91;98464.56;7306331;19;159108;-38
2022/04/02 00:11:21;;;;;;;23.93;2.77;;;;;;;18.55;60.74;98481.47;7310818;19;154787;-38
2022/04/02 00:13:47;;;;;;;21.67;2.67;;;;;;;18.56;60.82;98488.31;7309786;19;129650;-40
2022/04/02 00:16:12;;;;;;;23.63;2.97;;;;;;;18.55;61.03;98486.69;7309300;19;150668;-37
2022/04/02 00:18:39;;;;;;;23.23;3.10;;;;;;;18.53;60.85;98478.19;7308920;19;130660;-39
2022/04/02 00:21:04;;;;;;;19.55;2.40;;;;;;;18.57;60.95;98476.94;7310908;19;129236;-40
2022/04/02 00:23:44;;;;;;;25.93;3.17;;;;;;;18.56;60.69;98482.31;7308640;19;153994;-39
2022/04/02 00:26:14;;;;;;;21.15;2.55;;;;;;;18.53;60.72;98486.00;7310698;19;130415;-37
2022/04/02 00:28:41;;;;;;;33.55;4.15;;;;;;;18.53;60.75;98477.41;7306008;19;129650;-41
2022/04/02 00:31:07;;;;;;;20.73;2.67;;;;;;;18.55;61.02;98485.84;7309931;19;130423;-37
2022/04/02 00:33:33;;;;;;;28.15;3.40;;;;;;;18.54;60.44;98487.66;7309105;19;129006;-41
2022/04/02 00:35:58;;;;;;;25.95;3.28;;;;;;;18.56;60.61;98484.91;7307509;19;129726;-36
2022/04/02 00:38:24;;;;;;;18.55;2.38;;;;;;;18.51;60.77;98485.31;7307242;19;159000;-40
2022/04/02 00:40:49;;;;;;;20.02;2.35;;;;;;;18.54;60.24;98490.25;7310864;19;129019;-37
2022/04/02 00:43:22;;;;;;;21.88;2.70;;;;;;;18.52;61.59;98489.59;7308659;19;155051;-38
2022/04/02 00:45:48;;;;;;;18.30;2.03;;;;;;;18.51;61.16;98474.91;7308120;19;129123;-40
2022/04/02 00:48:13;;;;;;;18.98;2.25;;;;;;;18.53;60.37;98483.41;7308012;19;130388;-38
2022/04/02 00:50:39;;;;;;;18.67;2.43;;;;;;;18.53;60.75;98483.41;7309010;19;155801;-38
2022/04/02 00:53:04;;;;;;;7.45;1.48;;;;;;;18.53;60.72;98488.59;7307508;19;153857;-40
2022/04/02 00:55:31;;;;;;;22.20;2.60;;;;;;;18.54;60.61;98479.84;7307409;19;158235;-38
2022/04/02 00:57:57;;;;;;;14.35;1.92;;;;;;;18.52;60.73;98496.56;7308257;19;129733;-38
2022/04/02 01:00:22;;;;;;;19.48;2.45;;;;;;;18.53;60.51;98486.00;7310163;19;129082;-40
2022/04/02 01:02:48;;;;;;;22.05;2.92;;;;;;;18.55;60.69;98493.66;7309398;19;129084;-39
2022/04/02 01:05:13;;;;;;;18.70;2.40;;;;;;;18.58;61.00;98490.75;7308285;19;158016;-39
2022/04/02 01:07:39;;;;;;;21.35;2.63;;;;;;;18.45;60.08;98485.09;7307734;19;130925;-39
2022/04/02 01:10:05;;;;;;;19.42;2.40;;;;;;;18.56;60.28;98498.72;7309925;19;129481;-38
2022/04/02 01:12:30;;;;;;;20.83;2.70;;;;;;;18.57;60.00;98497.78;7309315;19;129059;-37
2022/04/02 01:14:55;;;;;;;14.67;1.80;;;;;;;18.54;60.69;98500.66;7305652;19;158337;-38
2022/04/02 01:17:22;;;;;;;12.37;2.00;;;;;;;18.56;60.42;98501.31;7306049;19;158504;-40
2022/04/02 01:19:47;;;;;;;21.13;2.53;;;;;;;18.56;60.14;98501.31;7312697;19;128814;-39
2022/04/02 01:22:12;;;;;;;26.98;3.03;;;;;;;18.56;60.37;98503.91;7315587;19;129362;-39
2022/04/02 01:24:38;;;;;;;17.17;2.40;;;;;;;18.58;60.54;98507.19;7314748;19;159793;-38
2022/04/02 01:27:04;;;;;;;16.97;2.43;;;;;;;18.57;60.28;98509.97;7313582;19;150671;-39
2022/04/02 01:29:34;;;;;;;30.13;3.53;;;;;;;18.53;61.00;98514.63;7316765;19;129542;-38
2022/04/02 01:32:00;;;;;;;19.05;2.33;;;;;;;18.51;60.21;98506.16;7316556;19;129203;-40
2022/04/02 01:34:26;;;;;;;19.48;2.47;;;;;;;18.53;60.28;98509.44;7314311;19;129626;-39
2022/04/02 01:36:51;;;;;;;13.25;1.95;;;;;;;18.55;60.49;98515.31;7314796;19;129062;-37
2022/04/02 01:39:16;;;;;;;17.58;2.10;;;;;;;18.56;60.81;98514.34;7312442;19;154452;-39
2022/04/02 01:41:41;;;;;;;25.70;3.30;;;;;;;18.54;60.87;98503.28;7313298;19;154656;-42
2022/04/02 01:44:06;;;;;;;10.93;1.77;;;;;;;18.57;60.62;98510.78;7313689;19;158224;-37
2022/04/02 01:46:32;;;;;;;30.88;3.85;;;;;;;18.57;60.63;98509.97;7313277;19;150530;-39
2022/04/02 01:48:57;;;;;;;24.60;2.93;;;;;;;18.56;60.49;98519.53;7310170;19;155367;-37
2022/04/02 01:51:22;;;;;;;21.63;2.92;;;;;;;18.56;60.40;98519.53;7315676;19;128935;-38
2022/04/02 01:53:47;;;;;;;25.27;3.17;;;;;;;18.57;60.63;98518.59;7312402;19;158553;-39
2022/04/02 01:56:13;;;;;;;21.07;2.60;;;;;;;18.52;60.85;98525.19;7312239;19;158586;-38
2022/04/02 01:58:38;;;;;;;8.87;1.57;;;;;;;18.54;60.68;98526.69;7311394;19;153385;-40
2022/04/02 02:01:06;;;;;;;24.73;3.13;;;;;;;18.51;60.61;98526.16;7315016;19;128903;-38
2022/04/02 02:03:31;;;;;;;18.58;2.33;;;;;;;18.55;60.40;98522.28;7312041;19;129270;-37
2022/04/02 02:05:57;;;;;;;16.15;2.20;;;;;;;18.55;60.46;98527.50;7313326;19;150017;-39
2022/04/02 02:08:23;;;;;;;15.20;2.00;;;;;;;18.55;60.42;98523.13;7312526;19;128763;-39
2022/04/02 02:10:48;;;;;;;23.52;2.78;;;;;;;18.54;60.62;98531.91;7314828;19;129444;-41
2022/04/02 02:13:14;;;;;;;14.18;1.77;;;;;;;18.46;60.51;98513.56;7315581;19;130120;-38
2022/04/02 02:15:40;;;;;;;21.60;2.78;;;;;;;18.43;60.53;98513.88;7315211;19;130765;-38
2022/04/02 02:18:05;;;;;;;20.17;2.42;;;;;;;18.54;60.26;98537.09;7311776;19;129061;-40
2022/04/02 02:20:30;;;;;;;20.05;2.47;;;;;;;18.53;61.18;98535.44;7315148;19;129002;-39
2022/04/02 02:22:56;;;;;;;18.80;2.45;;;;;;;18.51;60.84;98539.97;7313668;19;129058;-36
2022/04/02 02:25:21;;;;;;;36.83;4.43;;;;;;;18.51;60.91;98534.78;7312046;19;158629;-39
2022/04/02 02:27:47;;;;;;;25.92;3.08;;;;;;;18.54;60.61;98531.91;7312302;19;129061;-38
2022/04/02 02:30:14;;;;;;;16.38;2.00;;;;;;;18.55;60.25;98537.91;7314813;19;129265;-37
2022/04/02 02:32:39;;;;;;;;;;;;;;;18.53;62.17;98537.25;7315959;19;130557;-39
2022/04/02 02:38:00;;;;;;;22.35;2.78;;;;;;;18.57;60.21;98536.81;7313234;19;129585;-38
2022/04/02 02:40:25;;;;;;;15.77;1.80;;;;;;;18.56;60.82;98535.16;7314495;19;129591;-40
2022/04/02 02:42:50;;;;;;;28.53;3.47;;;;;;;18.54;60.99;98536.28;7311818;19;158429;-38
2022/04/02 02:45:16;;;;;;;26.53;3.10;;;;;;;18.54;60.78;98550.13;7311190;19;158581;-39
2022/04/02 02:47:41;;;;;;;21.57;2.67;;;;;;;18.56;60.80;98545.56;7309435;19;155320;-36
2022/04/02 02:50:07;;;;;;;23.77;3.03;;;;;;;18.55;60.70;98545.72;7311967;19;154075;-39
2022/04/02 02:52:32;;;;;;;23.80;2.90;;;;;;;18.44;61.01;98540.72;7313192;19;129037;-39
2022/04/02 02:54:57;;;;;;;22.30;2.70;;;;;;;18.54;60.30;98552.72;7310683;19;134239;-38
2022/04/02 02:57:23;;;;;;;17.95;2.17;;;;;;;18.48;60.24;98539.47;7312278;19;129329;-38
2022/04/02 02:59:48;;;;;;;27.20;3.37;;;;;;;18.53;60.80;98555.47;7311578;19;154038;-39
2022/04/02 03:02:13;;;;;;;20.03;2.23;;;;;;;18.55;60.73;98562.16;7312082;19;158789;-36
2022/04/02 03:04:39;;;;;;;24.30;2.97;;;;;;;18.54;61.03;98567.50;7311143;19;158893;-38
2022/04/02 03:07:04;;;;;;;27.95;3.15;;;;;;;18.55;60.88;98559.56;7312103;19;130041;-38
2022/04/02 03:09:29;;;;;;;23.90;2.92;;;;;;;18.54;60.73;98565.75;7311321;19;155049;-38
2022/04/02 03:11:56;;;;;;;24.93;2.73;;;;;;;18.57;60.09;98573.25;7311668;19;157510;-39
2022/04/02 03:14:21;;;;;;;18.90;2.35;;;;;;;18.52;60.32;98575.47;7311382;19;130241;-38
2022/04/02 03:16:46;;;;;;;23.85;2.97;;;;;;;18.56;60.54;98581.22;7311018;19;129172;-40
2022/04/02 03:19:12;;;;;;;20.67;2.58;;;;;;;18.55;60.76;98582.97;7310217;19;128918;-38
2022/04/02 03:21:37;;;;;;;26.07;3.20;;;;;;;18.42;60.98;98559.09;7310678;19;158729;-39
2022/04/02 03:24:02;;;;;;;21.40;2.57;;;;;;;18.53;60.62;98582.31;7312323;19;159157;-38
2022/04/02 03:26:28;;;;;;;18.85;2.28;;;;;;;18.54;60.39;98589.16;7311680;19;129103;-37
2022/04/02 03:28:53;;;;;;;19.15;2.42;;;;;;;18.55;60.67;98592.56;7309291;19;155015;-40
2022/04/02 03:31:19;;;;;;;18.37;2.17;;;;;;;18.53;60.97;98592.72;7311458;19;158418;-37
2022/04/02 03:33:45;;;;;;;23.77;2.80;;;;;;;18.56;60.71;98589.81;7312013;19;129842;-37
2022/04/02 03:36:10;;;;;;;38.95;4.93;;;;;;;18.54;60.49;98589.16;7310270;19;129184;-37
2022/04/02 03:38:37;;;;;;;22.40;3.03;;;;;;;18.49;60.40;98580.97;7309371;19;154589;-38
2022/04/02 03:41:04;;;;;;;;;;;;;;;18.47;61.70;98588.09;7314431;19;129597;-38
2022/04/02 03:43:30;;;;;;;20.90;2.67;;;;;;;18.26;61.62;98584.88;7311102;19;130664;-39
2022/04/02 03:47:07;;;;;;;26.05;2.78;;;;;;;18.06;63.56;98594.50;7312214;19;130475;-38
2022/04/02 03:48:40;;;;;;;15.18;2.22;;;;;;;18.07;62.61;98595.31;7308776;19;129645;-38
2022/04/02 03:51:05;;;;;;;25.50;3.03;;;;;;;18.15;61.71;98596.25;7311477;19;159148;-37
2022/04/02 03:53:30;;;;;;;10.90;1.80;;;;;;;18.25;60.97;98598.81;7309572;19;158396;-38
2022/04/02 03:55:56;;;;;;;25.02;3.22;;;;;;;18.27;60.81;98596.91;7309921;19;154926;-39
2022/04/02 03:58:21;;;;;;;24.03;2.83;;;;;;;18.29;60.29;98584.59;7307652;19;153987;-37
2022/04/02 04:00:46;;;;;;;17.60;2.10;;;;;;;18.23;61.36;98592.94;7309675;19;158328;-39
2022/04/02 04:03:11;;;;;;;25.50;3.13;;;;;;;18.27;60.62;98590.88;7309726;19;158608;-38
2022/04/02 04:05:38;;;;;;;31.20;3.23;;;;;;;18.38;60.66;98593.31;7309264;19;155767;-38
2022/04/02 04:08:03;;;;;;;6.90;1.30;;;;;;;18.45;60.03;98594.38;7310023;19;129367;-37
2022/04/02 04:10:28;;;;;;;10.82;1.48;;;;;;;18.54;60.26;98594.38;7310723;19;130356;-39
2022/04/02 04:12:54;;;;;;;22.10;2.85;;;;;;;18.65;59.48;98591.56;7309383;19;131073;-40
2022/04/02 04:15:19;;;;;;;26.33;3.33;;;;;;;18.76;59.22;98595.75;7309081;19;129058;-39
2022/04/02 04:17:44;;;;;;;19.60;2.45;;;;;;;18.88;58.36;98597.19;7308098;19;130701;-39
2022/04/02 04:20:11;;;;;;;20.67;2.53;;;;;;;18.98;58.39;98606.59;7310055;19;129032;-37
2022/04/02 04:22:36;;;;;;;24.30;2.87;;;;;;;19.08;58.37;98602.13;7309286;19;130348;-36
2022/04/02 04:25:02;;;;;;;32.67;3.85;;;;;;;19.18;57.83;98615.91;7308490;19;129197;-40
2022/04/02 04:27:28;;;;;;;30.58;3.40;;;;;;;19.28;57.61;98616.66;7306584;19;129024;-37
2022/04/02 04:29:53;;;;;;;26.83;3.03;;;;;;;19.28;56.96;98608.84;7308091;19;158595;-38
2022/04/02 04:32:18;;;;;;;21.00;2.60;;;;;;;19.47;56.87;98620.13;7307968;19;157038;-39
2022/04/02 04:34:43;;;;;;;27.87;3.33;;;;;;;19.56;56.62;98624.41;7305384;19;146164;-38
2022/04/02 04:37:09;;;;;;;25.67;3.05;;;;;;;19.67;56.39;98626.81;7306321;19;154060;-38
2022/04/02 04:39:34;;;;;;;16.53;2.03;;;;;;;19.69;56.34;98625.69;7308368;19;139593;-40
2022/04/02 04:41:59;;;;;;;29.83;3.35;;;;;;;19.81;55.90;98636.69;7308363;19;129531;-39
2022/04/02 04:44:25;;;;;;;38.65;4.30;;;;;;;19.88;55.90;98635.13;7308372;19;129572;-38
2022/04/02 04:46:50;;;;;;;27.67;3.17;;;;;;;19.92;55.98;98644.25;7308386;19;129111;-38
2022/04/02 04:49:16;;;;;;;24.48;2.95;;;;;;;19.89;55.22;98626.31;7301030;19;138565;-38
2022/04/02 04:51:42;;;;;;;21.10;2.55;;;;;;;20.03;55.01;98651.84;7309916;19;130344;-43
2022/04/02 04:54:07;;;;;;;23.93;2.87;;;;;;;20.11;55.38;98651.91;7310213;19;130636;-40
2022/04/02 04:56:33;;;;;;;21.85;2.83;;;;;;;20.14;54.89;98654.22;7311697;19;153937;-37
2022/04/02 04:58:58;;;;;;;25.60;2.75;;;;;;;20.21;54.41;98658.69;7314231;19;130265;-39
2022/04/02 05:01:23;;;;;;;20.25;2.58;;;;;;;20.25;54.50;98653.97;7313737;19;158482;-40
2022/04/02 05:03:48;;;;;;;26.23;3.03;;;;;;;20.31;54.42;98659.41;7313473;19;129678;-37
2022/04/02 05:06:14;;;;;;;21.97;2.87;;;;;;;20.34;54.18;98659.13;7313182;19;155266;-39
2022/04/02 05:08:39;;;;;;;23.00;2.95;;;;;;;20.27;53.92;98649.44;7314645;19;129404;-38
2022/04/02 05:11:05;;;;;;;36.97;3.97;;;;;;;20.31;54.57;98674.25;7314241;19;130158;-39
2022/04/02 05:13:31;;;;;;;21.08;2.40;;;;;;;20.25;54.18;98674.84;7314938;19;129753;-38
2022/04/02 05:15:57;;;;;;;27.67;3.40;;;;;;;20.12;54.89;98671.81;7312793;19;129044;-42
2022/04/02 05:18:23;;;;;;;21.05;2.65;;;;;;;19.96;54.99;98675.13;7313169;19;129616;-41
2022/04/02 05:20:48;;;;;;;11.77;1.92;;;;;;;19.86;55.30;98678.78;7315837;19;130409;-37
2022/04/02 05:23:13;;;;;;;19.17;2.57;;;;;;;19.73;55.88;98678.34;7313906;19;154729;-38
2022/04/02 05:25:39;;;;;;;26.00;3.28;;;;;;;19.58;56.24;98659.81;7314228;19;129537;-41
2022/04/02 05:28:07;;;;;;;21.90;2.58;;;;;;;19.60;56.32;98683.13;7312388;19;158953;-40
2022/04/02 05:30:33;;;;;;;20.63;2.90;;;;;;;19.65;56.27;98675.69;7313361;19;129397;-39
2022/04/02 05:32:59;;;;;;;29.30;3.22;;;;;;;19.69;56.33;98682.22;7313106;19;129446;-41
2022/04/02 05:35:24;;;;;;;39.20;4.53;;;;;;;19.61;56.48;98658.69;7308782;19;155306;-40
2022/04/02 05:37:49;;;;;;;23.03;2.63;;;;;;;19.80;55.90;98688.00;7311820;19;158468;-38
2022/04/02 05:40:15;;;;;;;33.28;4.03;;;;;;;19.89;55.62;98688.91;7314211;19;130485;-39
2022/04/02 05:42:41;;;;;;;14.70;2.42;;;;;;;19.97;55.39;98696.78;7314130;19;129297;-39
2022/04/02 05:45:07;;;;;;;26.93;3.17;;;;;;;20.03;55.92;98689.19;7312989;19;129139;-39
2022/04/02 05:47:50;;;;;;;26.60;3.43;;;;;;;20.12;55.34;98692.69;7311220;19;130223;-37
2022/04/02 05:50:17;;;;;;;13.07;1.75;;;;;;;20.20;55.07;98692.75;7315265;19;131769;-38
2022/04/02 05:52:42;;;;;;;26.30;3.33;;;;;;;20.27;54.61;98688.59;7314276;19;129911;-37
2022/04/02 05:55:12;;;;;;;26.85;3.05;;;;;;;20.33;54.96;98685.34;7311050;19;153976;-39
2022/04/02 05:57:39;;;;;;;19.08;2.35;;;;;;;20.40;54.46;98689.81;7312177;19;131639;-37
2022/04/02 06:00:06;;;;;;;22.85;2.97;;;;;;;20.47;54.41;98700.47;7314619;19;129282;-40
2022/04/02 06:02:31;;;;;;;22.83;2.90;;;;;;;20.47;54.02;98706.50;7312521;19;130615;-38
2022/04/02 06:04:56;;;;;;;30.25;3.25;;;;;;;20.51;54.13;98705.22;7313583;19;129630;-38
2022/04/02 06:07:22;;;;;;;18.55;2.22;;;;;;;20.61;54.01;98707.72;7312573;19;139821;-41
2022/04/02 06:09:47;;;;;;;30.40;3.75;;;;;;;20.66;53.58;98710.69;7313023;19;130993;-39
2022/04/02 06:12:12;;;;;;;23.75;2.83;;;;;;;20.68;53.39;98716.56;7312293;19;154385;-39
2022/04/02 06:14:38;;;;;;;37.90;4.17;;;;;;;20.62;53.78;98725.03;7310667;19;154179;-38
2022/04/02 06:17:03;;;;;;;23.15;3.03;;;;;;;20.58;53.63;98721.06;7310905;19;140146;-40
2022/04/02 06:19:28;;;;;;;20.52;2.55;;;;;;;20.47;53.80;98729.19;7314263;19;129377;-40
2022/04/02 06:21:54;;;;;;;27.30;3.35;;;;;;;20.33;54.26;98725.31;7312675;19;154604;-39
2022/04/02 06:24:19;;;;;;;16.70;1.83;;;;;;;20.21;54.71;98733.56;7312676;19;155443;-38
2022/04/02 06:26:44;;;;;;;40.03;4.47;;;;;;;20.02;55.79;98725.88;7309167;19;158147;-38
2022/04/02 06:29:09;;;;;;;31.23;3.80;;;;;;;19.86;55.41;98723.13;7308135;19;158823;-37
2022/04/02 06:31:35;;;;;;;18.10;2.43;;;;;;;19.83;55.88;98731.25;7311746;19;154668;-38
2022/04/02 06:34:00;;;;;;;24.73;2.93;;;;;;;19.70;56.17;98715.16;7312767;19;130396;-37
2022/04/02 06:36:26;;;;;;;12.33;1.57;;;;;;;19.79;55.85;98729.91;7311082;19;158288;-38
2022/04/02 06:38:52;;;;;;;27.63;3.33;;;;;;;19.87;55.77;98735.19;7311528;19;129840;-38
2022/04/02 06:41:17;;;;;;;6.73;1.30;;;;;;;19.93;55.93;98735.41;7312685;19;154093;-38
2022/04/02 06:43:42;;;;;;;30.93;3.63;;;;;;;19.90;55.44;98716.66;7310513;19;154852;-38
2022/04/02 06:46:07;;;;;;;21.63;2.60;;;;;;;20.10;55.56;98737.19;7311138;19;150967;-38
2022/04/02 06:48:33;;;;;;;17.07;2.17;;;;;;;20.17;55.11;98740.03;7311249;19;158453;-38
2022/04/02 06:51:00;;;;;;;16.38;2.13;;;;;;;20.27;55.42;98743.38;7314469;19;128959;-38
2022/04/02 06:53:25;;;;;;;;;;;;;;;20.31;54.77;98744.75;7313718;19;129283;-38
2022/04/02 06:55:51;;;;;;;15.50;2.30;;;;;;;20.39;54.80;98736.97;7308958;19;158679;-40
2022/04/02 06:58:32;;;;;;;22.02;3.05;;;;;;;20.45;54.41;98738.94;7309627;19;129335;-35
2022/04/02 07:00:57;;;;;;;11.60;1.63;;;;;;;20.55;54.50;98742.28;7311023;19;129162;-37
2022/04/02 07:03:23;;;;;;;23.10;2.78;;;;;;;20.65;53.99;98745.63;7313627;19;129008;-38
2022/04/02 07:05:49;;;;;;;35.55;4.43;;;;;;;20.68;54.23;98743.53;7311690;19;129212;-39
2022/04/02 07:08:14;;;;;;;22.05;2.78;;;;;;;20.79;53.75;98750.28;7310847;19;130889;-39
2022/04/02 07:10:39;;;;;;;25.95;3.33;;;;;;;20.83;53.90;98751.59;7311619;19;154319;-43
2022/04/02 07:13:05;;;;;;;25.80;3.20;;;;;;;20.80;53.23;98738.03;7311005;19;154156;-39
2022/04/02 07:15:30;;;;;;;34.55;4.38;;;;;;;20.86;53.51;98748.66;7310491;19;130918;-40
2022/04/02 07:17:55;;;;;;;14.52;2.35;;;;;;;20.86;53.68;98753.91;7307419;19;158742;-37
2022/04/02 07:20:26;;;;;;;26.38;3.05;;;;;;;20.80;53.51;98751.91;7312329;19;134160;-40
2022/04/02 07:22:52;;;;;;;38.75;4.13;;;;;;;20.66;54.41;98749.84;7310396;19;129454;-39
2022/04/02 07:25:19;;;;;;;20.15;2.85;;;;;;;20.54;54.75;98754.50;7309648;19;130046;-39
2022/04/02 07:27:44;;;;;;;;;;;;;;;20.39;54.75;98763.91;7310510;19;130789;-37
2022/04/02 07:30:11;;;;;;;18.20;2.70;;;;;;;20.25;55.15;98753.97;7310906;19;130040;-39
2022/04/02 07:32:36;;;;;;;44.17;4.95;;;;;;;20.15;55.78;98762.84;7310520;19;130863;-40
2022/04/02 07:35:02;;;;;;;30.80;3.67;;;;;;;20.03;55.96;98764.03;7309837;19;129403;-40
2022/04/02 07:37:36;;;;;;;18.35;2.30;;;;;;;19.95;56.78;98769.19;7306393;19;131144;-38
2022/04/02 07:40:36;;;;;;;30.73;3.58;;;;;;;19.95;56.20;98772.59;7307914;19;129171;-38
2022/04/02 07:43:06;;;;;;;23.67;2.80;;;;;;;20.03;56.13;98771.88;7307123;19;129956;-39
2022/04/02 07:45:39;;;;;;;32.95;3.72;;;;;;;20.10;55.83;98770.28;7307239;19;157149;-40
2022/04/02 07:48:07;;;;;;;25.80;2.92;;;;;;;20.18;55.80;98775.63;7305856;19;132149;-40
2022/04/02 07:50:33;;;;;;;26.35;2.95;;;;;;;20.24;55.51;98767.19;7308223;19;129559;-39
2022/04/02 07:52:59;;;;;;;31.53;3.47;;;;;;;20.36;55.68;98771.22;7309381;19;129159;-40
2022/04/02 07:55:29;;;;;;;35.78;4.22;;;;;;;20.47;55.38;98763.94;7307004;19;130151;-38
2022/04/02 07:58:01;;;;;;;18.35;2.08;;;;;;;20.55;54.56;98776.22;7310398;19;129233;-39
2022/04/02 08:00:27;;;;;;;11.02;1.65;;;;;;;20.61;54.53;98775.59;7311863;19;129434;-39
2022/04/02 08:02:52;;;;;;;23.83;2.83;;;;;;;20.54;54.77;98775.41;7312012;19;129655;-39
2022/04/02 08:05:20;;;;;;;14.35;2.10;;;;;;;20.49;54.81;98780.25;7310364;19;159021;-39
2022/04/02 08:07:54;;;;;;;19.83;2.45;;;;;;;20.41;55.34;98779.41;7310264;19;132796;-40
2022/04/02 08:10:23;;;;;;;24.58;3.00;;;;;;;20.34;55.16;98778.38;7311810;19;129612;-40
2022/04/02 08:12:49;;;;;;;19.40;2.25;;;;;;;20.22;55.85;98776.94;7311677;19;129589;-40
2022/04/02 08:15:19;;;;;;;32.00;4.15;;;;;;;20.12;56.01;98778.78;7309641;19;130162;-39
2022/04/02 08:17:46;;;;;;;9.52;1.42;;;;;;;20.03;55.87;98779.69;7309936;19;129507;-39
2022/04/02 08:20:15;;;;;;;15.38;2.00;;;;;;;19.95;56.57;98780.44;7311937;19;128814;-40
2022/04/02 08:22:40;;;;;;;23.98;2.65;;;;;;;19.83;56.52;98783.41;7311527;19;129049;-39
2022/04/02 08:25:06;;;;;;;20.20;2.67;;;;;;;19.76;57.36;98783.19;7310882;19;129417;-41
2022/04/02 08:27:41;;;;;;;17.48;2.10;;;;;;;19.71;57.10;98784.59;7310042;19;130426;-40
2022/04/02 08:30:08;;;;;;;18.95;2.55;;;;;;;19.65;57.96;98793.00;7318370;19;130012;-39
2022/04/02 08:32:55;;;;;;;17.90;2.15;;;;;;;19.56;58.13;98792.09;7318024;19;129465;-39
2022/04/02 08:35:29;;;;;;;30.40;3.47;;;;;;;19.57;58.28;98795.53;7316990;19;131086;-40
2022/04/02 08:38:27;;;;;;;17.35;2.08;;;;;;;19.50;58.97;98802.28;7316816;19;130449;-39
2022/04/02 08:41:17;;;;;;;20.52;2.50;;;;;;;19.48;59.40;98800.63;7318234;19;129553;-39
2022/04/02 08:44:06;;;;;;;21.20;2.60;;;;;;;19.43;59.45;98802.03;7317198;19;128904;-39
2022/04/02 08:46:43;;;;;;;20.83;2.88;;;;;;;19.40;58.85;98803.13;7317917;19;130465;-40
2022/04/02 08:49:38;;;;;;;23.92;2.78;;;;;;;19.36;60.42;98817.44;7315878;19;130307;-39
2022/04/02 08:52:15;;;;;;;22.38;2.72;;;;;;;19.35;60.57;98815.78;7317619;19;129594;-40
2022/04/02 08:54:51;;;;;;;24.27;3.03;;;;;;;19.28;60.75;98812.09;7314566;19;154540;-38
2022/04/02 08:57:31;;;;;;;16.77;1.95;;;;;;;19.35;60.54;98828.81;7316418;19;129038;-40
2022/04/02 09:00:08;;;;;;;21.27;2.50;;;;;;;19.30;61.04;98818.00;7318090;19;130909;-40
2022/04/02 09:02:46;;;;;;;13.82;1.77;;;;;;;19.30;61.14;98820.59;7317950;19;129594;-39
2022/04/02 09:05:27;;;;;;;20.02;2.38;;;;;;;19.26;61.52;98821.00;7315752;19;154213;-39
2022/04/02 09:08:20;;;;;;;24.27;2.92;;;;;;;19.30;61.88;98828.41;7314137;19;157451;-39
2022/04/02 09:11:15;;;;;;;16.10;2.00;;;;;;;19.29;61.35;98842.44;7316491;19;131660;-40
2022/04/02 09:13:57;;;;;;;21.92;2.75;;;;;;;19.29;61.58;98833.78;7314686;19;129854;-40
2022/04/02 09:16:51;;;;;;;18.23;1.98;;;;;;;19.29;62.12;98829.41;7311823;19;129161;-38
2022/04/02 09:19:22;;;;;;;17.50;2.20;;;;;;;19.29;61.61;98842.44;7308930;19;129218;-39
2022/04/02 09:22:04;;;;;;;27.02;3.38;;;;;;;19.31;62.15;98837.06;7314553;19;130335;-39
2022/04/02 09:24:38;;;;;;;28.58;3.03;;;;;;;19.30;61.93;98833.63;7315731;19;129825;-39
2022/04/02 09:27:15;;;;;;;19.90;2.53;;;;;;;19.37;61.35;98842.53;7313022;19;130473;-39
2022/04/02 09:30:02;;;;;;;44.65;4.95;;;;;;;19.28;61.63;98826.91;7312985;19;146484;-37
2022/04/02 09:32:49;;;;;;;38.58;4.65;;;;;;;19.38;61.91;98836.38;7311607;19;129656;-39
2022/04/02 09:35:45;;;;;;;27.75;3.05;;;;;;;19.36;61.40;98838.28;7311565;19;129450;-40
2022/04/02 09:38:22;;;;;;;26.67;2.78;;;;;;;19.42;59.09;98832.50;7314047;19;129309;-39
2022/04/02 09:40:50;;;;;;;22.92;2.67;;;;;;;19.45;59.89;98832.19;7311623;19;130107;-39
2022/04/02 09:43:31;;;;;;;16.48;2.05;;;;;;;19.44;60.63;98825.34;7312789;19;129858;-40
2022/04/02 09:46:18;;;;;;;12.70;1.67;;;;;;;19.48;60.47;98840.69;7312562;19;129613;-39
2022/04/02 09:49:00;;;;;;;17.52;2.00;;;;;;;19.43;61.24;98839.38;7313210;19;129550;-39
2022/04/02 09:51:41;;;;;;;26.60;2.80;;;;;;;19.47;60.41;98832.06;7314360;19;130166;-38
2022/04/02 09:54:22;;;;;;;18.75;2.03;;;;;;;19.45;60.59;98840.03;7314429;19;129990;-39
2022/04/02 09:56:54;;;;;;;24.75;2.85;;;;;;;19.50;59.46;98838.78;7314575;19;129251;-39
2022/04/02 09:59:43;;;;;;;6.97;1.00;;;;;;;19.43;60.53;98834.16;7312889;19;129037;-39
2022/04/02 10:02:17;;;;;;;45.97;5.15;;;;;;;19.41;60.62;98836.06;7312144;19;129122;-39
2022/04/02 10:04:52;;;;;;;19.38;2.42;;;;;;;19.42;59.90;98842.91;7313132;19;130376;-40
2022/04/02 10:07:36;;;;;;;17.05;2.05;;;;;;;19.47;60.87;98823.44;7312567;19;129139;-40
2022/04/02 10:10:02;;;;;;;14.18;2.10;;;;;;;19.46;58.87;98838.25;7312961;19;129811;-39
2022/04/02 10:12:29;;;;;;;16.10;1.98;;;;;;;19.39;60.89;98829.34;7314927;19;130876;-38
2022/04/02 10:14:57;;;;;;;43.38;5.10;;;;;;;19.50;58.96;98831.78;7311814;19;131163;-38
2022/04/02 10:17:28;;;;;;;20.05;2.20;;;;;;;19.49;59.16;98830.13;7313327;19;129129;-40
2022/04/02 10:19:56;;;;;;;22.33;2.85;;;;;;;19.55;57.45;98807.88;7315294;19;129024;-39
2022/04/02 10:22:36;;;;;;;31.42;3.90;;;;;;;19.56;59.65;98833.81;7313602;19;130073;-40
2022/04/02 10:25:06;;;;;;;27.00;3.30;;;;;;;19.42;59.45;98827.28;7314699;19;129578;-40
2022/04/02 10:27:36;;;;;;;21.83;2.55;;;;;;;19.43;58.25;98828.94;7311287;19;130321;-40
2022/04/02 10:30:12;;;;;;;28.38;3.78;;;;;;;19.43;58.09;98818.50;7311538;19;129303;-40
2022/04/02 10:35:44;;;;;;;39.35;4.88;;;;;;;19.38;58.50;98831.16;7309997;19;129451;-38
2022/04/02 10:38:32;;;;;;;14.55;2.40;;;;;;;19.39;58.81;98831.97;7313861;19;129975;-39
2022/04/02 10:40:58;;;;;;;37.65;4.80;;;;;;;19.36;59.19;98827.88;7311405;19;129493;-38
2022/04/02 10:43:29;;;;;;;27.80;2.72;;;;;;;19.36;58.82;98827.88;7313636;19;130565;-39
2022/04/02 10:45:56;;;;;;;32.25;4.18;;;;;;;19.40;57.26;98824.00;7309447;19;130321;-39
2022/04/02 10:48:27;;;;;;;32.08;3.55;;;;;;;19.37;58.62;98826.91;7311821;19;129178;-39
2022/04/02 10:50:55;;;;;;;42.38;5.32;;;;;;;19.39;57.50;98827.56;7311375;19;129225;-38
2022/04/02 10:53:22;;;;;;;43.28;5.72;;;;;;;19.36;58.33;98812.22;7306952;19;130693;-40
2022/04/02 10:55:58;;;;;;;34.67;4.88;;;;;;;19.24;59.24;98804.69;7307977;19;129604;-39
2022/04/02 10:58:23;;;;;;;27.15;4.18;;;;;;;19.34;58.87;98826.34;7310760;19;128822;-38
2022/04/02 11:00:55;;;;;;;29.15;4.53;;;;;;;19.34;59.62;98823.75;7313670;19;129289;-39
2022/04/02 11:03:37;;;;;;;24.33;4.05;;;;;;;19.33;59.84;98820.34;7312991;19;130200;-40
2022/04/02 11:06:02;;;;;;;31.63;4.82;;;;;;;19.27;59.39;98814.84;7310790;19;129986;-40
2022/04/02 11:08:31;;;;;;;29.83;4.85;;;;;;;19.34;59.53;98829.78;7309672;19;130768;-39
2022/04/02 11:11:16;;;;;;;24.52;4.40;;;;;;;19.33;59.79;98822.94;7312952;19;129782;-39
2022/04/02 11:13:43;;;;;;;31.38;5.35;;;;;;;19.23;59.21;98806.50;7310640;19;132620;-38
2022/04/02 11:16:16;;;;;;;40.50;6.70;;;;;;;19.29;60.04;98821.59;7308622;19;131407;-39
2022/04/02 11:19:53;;;;;;;31.90;4.97;;;;;;;19.26;58.74;98821.84;7310737;19;129095;-39
2022/04/02 11:21:34;;;;;;;13.05;3.50;;;;;;;19.21;58.92;98818.00;7312146;19;129186;-39
2022/04/02 11:24:01;;;;;;;22.05;4.38;;;;;;;19.29;58.90;98826.78;7312732;19;130115;-40
2022/04/02 11:26:29;;;;;;;32.17;5.40;;;;;;;19.26;59.12;98816.63;7311617;19;129473;-40
2022/04/02 11:28:55;;;;;;;25.02;4.30;;;;;;;19.30;58.35;98820.59;7311251;19;129423;-38
2022/04/02 11:31:28;;;;;;;28.08;4.95;;;;;;;19.28;59.36;98814.72;7312773;19;129957;-40
2022/04/02 11:33:54;;;;;;;26.55;4.85;;;;;;;19.22;58.71;98820.47;7310759;19;130757;-38